sensor_id;sensor_type;location;lat;lon;timestamp;P1;durP1;ratioP1;P2;durP2;ratioP2
3189;SDS011;1606;51.946;10.558;2023-01-04T00:01:29;7.00;;;2.43;;
3189;SDS011;1606;51.946;10.558;2023-01-04T00:03:57;7.30;;;2.30;;
3189;SDS011;1606;51.946;10.558;2023-01-04T00:06:25;8.73;;;2.37;;
3189;SDS011;1606;51.946;10.558;2023-01-04T00:08:52;9.70;;;2.90;;
3189;SDS011;1606;51.946;10.558;2023-01-04T00:11:22;11.17;;;2.20;;
3189;SDS011;1606;51.946;10.558;2023-01-04T00:13:51;6.20;;;2.53;;
3189;SDS011;1606;51.946;10.558;2023-01-04T00:16:25;13.03;;;2.93;;
3189;SDS011;1606;51.946;10.558;2023-01-04T00:18:54;10.00;;;2.77;;
3189;SDS011;1606;51.946;10.558;2023-01-04T00:21:23;7.67;;;2.47;;
3189;SDS011;1606;51.946;10.558;2023-01-04T00:23:52;6.00;;;2.13;;
3189;SDS011;1606;51.946;10.558;2023-01-04T00:26:24;7.70;;;2.40;;
3189;SDS011;1606;51.946;10.558;2023-01-04T00:28:54;9.83;;;3.13;;
3189;SDS011;1606;51.946;10.558;2023-01-04T00:31:23;6.27;;;2.10;;
3189;SDS011;1606;51.946;10.558;2023-01-04T00:33:52;9.33;;;2.83;;
3189;SDS011;1606;51.946;10.558;2023-01-04T00:36:20;9.33;;;2.53;;
3189;SDS011;1606;51.946;10.558;2023-01-04T00:38:48;9.17;;;2.57;;
3189;SDS011;1606;51.946;10.558;2023-01-04T00:41:34;7.97;;;2.30;;
3189;SDS011;1606;51.946;10.558;2023-01-04T00:44:23;7.17;;;2.30;;
3189;SDS011;1606;51.946;10.558;2023-01-04T00:46:53;7.53;;;2.47;;
3189;SDS011;1606;51.946;10.558;2023-01-04T00:49:21;10.88;;;2.15;;
3189;SDS011;1606;51.946;10.558;2023-01-04T00:51:49;6.70;;;2.60;;
3189;SDS011;1606;51.946;10.558;2023-01-04T00:54:17;9.90;;;2.90;;
3189;SDS011;1606;51.946;10.558;2023-01-04T00:56:47;7.00;;;2.07;;
3189;SDS011;1606;51.946;10.558;2023-01-04T00:59:16;9.02;;;2.20;;
3189;SDS011;1606;51.946;10.558;2023-01-04T01:01:46;13.80;;;3.10;;
3189;SDS011;1606;51.946;10.558;2023-01-04T01:04:16;10.40;;;2.90;;
3189;SDS011;1606;51.946;10.558;2023-01-04T01:06:45;7.63;;;2.73;;
3189;SDS011;1606;51.946;10.558;2023-01-04T01:09:13;7.10;;;2.40;;
3189;SDS011;1606;51.946;10.558;2023-01-04T01:11:42;7.03;;;2.80;;
3189;SDS011;1606;51.946;10.558;2023-01-04T01:14:13;6.53;;;2.57;;
3189;SDS011;1606;51.946;10.558;2023-01-04T01:16:43;8.77;;;2.43;;
3189;SDS011;1606;51.946;10.558;2023-01-04T01:19:23;7.30;;;2.57;;
3189;SDS011;1606;51.946;10.558;2023-01-04T01:21:51;8.60;;;2.20;;
3189;SDS011;1606;51.946;10.558;2023-01-04T01:24:19;7.30;;;2.43;;
3189;SDS011;1606;51.946;10.558;2023-01-04T01:26:47;7.43;;;2.60;;
3189;SDS011;1606;51.946;10.558;2023-01-04T01:29:16;8.43;;;2.90;;
3189;SDS011;1606;51.946;10.558;2023-01-04T01:31:44;8.10;;;2.80;;
3189;SDS011;1606;51.946;10.558;2023-01-04T01:34:12;8.27;;;3.27;;
3189;SDS011;1606;51.946;10.558;2023-01-04T01:36:40;12.77;;;4.13;;
3189;SDS011;1606;51.946;10.558;2023-01-04T01:39:09;10.70;;;2.93;;
3189;SDS011;1606;51.946;10.558;2023-01-04T01:41:36;11.00;;;4.10;;
3189;SDS011;1606;51.946;10.558;2023-01-04T01:44:05;11.63;;;3.00;;
3189;SDS011;1606;51.946;10.558;2023-01-04T01:46:54;8.53;;;2.50;;
3189;SDS011;1606;51.946;10.558;2023-01-04T01:49:23;8.53;;;3.10;;
3189;SDS011;1606;51.946;10.558;2023-01-04T01:51:53;7.37;;;3.50;;
3189;SDS011;1606;51.946;10.558;2023-01-04T01:54:24;9.50;;;3.03;;
3189;SDS011;1606;51.946;10.558;2023-01-04T01:56:56;7.67;;;2.63;;
3189;SDS011;1606;51.946;10.558;2023-01-04T01:59:31;6.30;;;2.33;;
3189;SDS011;1606;51.946;10.558;2023-01-04T02:02:03;10.20;;;3.13;;
3189;SDS011;1606;51.946;10.558;2023-01-04T02:04:31;8.10;;;2.90;;
3189;SDS011;1606;51.946;10.558;2023-01-04T02:06:59;9.30;;;2.93;;
3189;SDS011;1606;51.946;10.558;2023-01-04T02:09:28;6.10;;;2.30;;
3189;SDS011;1606;51.946;10.558;2023-01-04T02:11:57;7.53;;;2.43;;
3189;SDS011;1606;51.946;10.558;2023-01-04T02:14:25;10.00;;;3.03;;
3189;SDS011;1606;51.946;10.558;2023-01-04T02:16:56;10.70;;;2.80;;
3189;SDS011;1606;51.946;10.558;2023-01-04T02:22:29;9.07;;;2.63;;
3189;SDS011;1606;51.946;10.558;2023-01-04T02:25:15;9.63;;;3.07;;
3189;SDS011;1606;51.946;10.558;2023-01-04T02:28:04;8.50;;;3.37;;
3189;SDS011;1606;51.946;10.558;2023-01-04T02:33:48;8.60;;;2.93;;
3189;SDS011;1606;51.946;10.558;2023-01-04T02:36:22;8.03;;;2.93;;
3189;SDS011;1606;51.946;10.558;2023-01-04T02:39:02;7.77;;;2.80;;
3189;SDS011;1606;51.946;10.558;2023-01-04T02:41:38;7.47;;;2.90;;
3189;SDS011;1606;51.946;10.558;2023-01-04T02:44:13;7.60;;;2.60;;
3189;SDS011;1606;51.946;10.558;2023-01-04T02:47:00;7.43;;;2.80;;
3189;SDS011;1606;51.946;10.558;2023-01-04T02:49:32;9.10;;;2.80;;
3189;SDS011;1606;51.946;10.558;2023-01-04T02:52:18;8.68;;;2.80;;
3189;SDS011;1606;51.946;10.558;2023-01-04T02:54:47;12.80;;;3.10;;
3189;SDS011;1606;51.946;10.558;2023-01-04T02:57:21;8.33;;;2.87;;
3189;SDS011;1606;51.946;10.558;2023-01-04T03:00:03;7.07;;;2.50;;
3189;SDS011;1606;51.946;10.558;2023-01-04T03:03:04;8.30;;;3.00;;
3189;SDS011;1606;51.946;10.558;2023-01-04T03:06:03;10.30;;;3.53;;
3189;SDS011;1606;51.946;10.558;2023-01-04T03:08:44;11.80;;;3.57;;
3189;SDS011;1606;51.946;10.558;2023-01-04T03:11:18;8.43;;;3.00;;
3189;SDS011;1606;51.946;10.558;2023-01-04T03:14:06;6.93;;;2.57;;
3189;SDS011;1606;51.946;10.558;2023-01-04T03:16:57;8.20;;;2.93;;
3189;SDS011;1606;51.946;10.558;2023-01-04T03:19:29;7.37;;;2.63;;
3189;SDS011;1606;51.946;10.558;2023-01-04T03:22:17;9.40;;;2.20;;
3189;SDS011;1606;51.946;10.558;2023-01-04T03:25:05;8.30;;;2.20;;
3189;SDS011;1606;51.946;10.558;2023-01-04T03:27:52;7.00;;;2.70;;
3189;SDS011;1606;51.946;10.558;2023-01-04T03:30:41;8.17;;;2.93;;
3189;SDS011;1606;51.946;10.558;2023-01-04T03:33:34;9.17;;;2.50;;
3189;SDS011;1606;51.946;10.558;2023-01-04T03:36:28;7.20;;;2.60;;
3189;SDS011;1606;51.946;10.558;2023-01-04T03:39:08;7.70;;;2.63;;
3189;SDS011;1606;51.946;10.558;2023-01-04T03:42:00;7.00;;;2.37;;
3189;SDS011;1606;51.946;10.558;2023-01-04T03:44:53;7.73;;;2.70;;
3189;SDS011;1606;51.946;10.558;2023-01-04T03:47:48;9.27;;;2.80;;
3189;SDS011;1606;51.946;10.558;2023-01-04T03:50:40;7.83;;;2.30;;
3189;SDS011;1606;51.946;10.558;2023-01-04T03:53:12;6.70;;;2.70;;
3189;SDS011;1606;51.946;10.558;2023-01-04T03:55:41;8.20;;;3.20;;
3189;SDS011;1606;51.946;10.558;2023-01-04T03:58:10;6.60;;;2.17;;
3189;SDS011;1606;51.946;10.558;2023-01-04T04:00:39;7.43;;;2.07;;
3189;SDS011;1606;51.946;10.558;2023-01-04T04:03:09;8.97;;;2.33;;
3189;SDS011;1606;51.946;10.558;2023-01-04T04:05:37;7.23;;;2.67;;
3189;SDS011;1606;51.946;10.558;2023-01-04T04:08:26;5.67;;;1.80;;
3189;SDS011;1606;51.946;10.558;2023-01-04T04:10:55;9.13;;;2.10;;
3189;SDS011;1606;51.946;10.558;2023-01-04T04:13:45;10.00;;;2.83;;
3189;SDS011;1606;51.946;10.558;2023-01-04T04:16:16;7.60;;;2.20;;
3189;SDS011;1606;51.946;10.558;2023-01-04T04:18:46;8.73;;;2.40;;
3189;SDS011;1606;51.946;10.558;2023-01-04T04:21:14;10.10;;;2.90;;
3189;SDS011;1606;51.946;10.558;2023-01-04T04:23:43;5.70;;;1.90;;
3189;SDS011;1606;51.946;10.558;2023-01-04T04:26:11;6.17;;;1.90;;
3189;SDS011;1606;51.946;10.558;2023-01-04T04:28:39;6.90;;;2.30;;
3189;SDS011;1606;51.946;10.558;2023-01-04T04:31:07;8.97;;;2.30;;
3189;SDS011;1606;51.946;10.558;2023-01-04T04:33:35;11.57;;;3.30;;
3189;SDS011;1606;51.946;10.558;2023-01-04T04:36:03;9.90;;;2.27;;
3189;SDS011;1606;51.946;10.558;2023-01-04T04:38:31;7.57;;;2.57;;
3189;SDS011;1606;51.946;10.558;2023-01-04T04:41:04;6.77;;;2.40;;
3189;SDS011;1606;51.946;10.558;2023-01-04T04:43:51;6.63;;;1.55;;
3189;SDS011;1606;51.946;10.558;2023-01-04T04:46:20;8.10;;;2.00;;
3189;SDS011;1606;51.946;10.558;2023-01-04T04:48:50;8.13;;;2.30;;
3189;SDS011;1606;51.946;10.558;2023-01-04T04:51:18;9.50;;;1.83;;
3189;SDS011;1606;51.946;10.558;2023-01-04T04:53:47;9.30;;;1.80;;
3189;SDS011;1606;51.946;10.558;2023-01-04T04:56:16;6.90;;;2.00;;
3189;SDS011;1606;51.946;10.558;2023-01-04T04:58:44;7.60;;;1.83;;
3189;SDS011;1606;51.946;10.558;2023-01-04T05:01:11;9.50;;;2.53;;
3189;SDS011;1606;51.946;10.558;2023-01-04T05:03:40;5.83;;;2.27;;
3189;SDS011;1606;51.946;10.558;2023-01-04T05:06:08;9.60;;;2.60;;
3189;SDS011;1606;51.946;10.558;2023-01-04T05:08:36;6.97;;;2.23;;
3189;SDS011;1606;51.946;10.558;2023-01-04T05:11:04;5.87;;;1.70;;
3189;SDS011;1606;51.946;10.558;2023-01-04T05:13:34;8.67;;;2.20;;
3189;SDS011;1606;51.946;10.558;2023-01-04T05:16:04;9.53;;;2.07;;
3189;SDS011;1606;51.946;10.558;2023-01-04T05:18:33;6.10;;;2.00;;
3189;SDS011;1606;51.946;10.558;2023-01-04T05:21:01;7.93;;;1.87;;
3189;SDS011;1606;51.946;10.558;2023-01-04T05:23:29;6.83;;;1.57;;
3189;SDS011;1606;51.946;10.558;2023-01-04T05:25:57;8.30;;;1.87;;
3189;SDS011;1606;51.946;10.558;2023-01-04T05:28:45;6.60;;;1.90;;
3189;SDS011;1606;51.946;10.558;2023-01-04T05:31:19;5.27;;;1.40;;
3189;SDS011;1606;51.946;10.558;2023-01-04T05:33:46;6.47;;;1.67;;
3189;SDS011;1606;51.946;10.558;2023-01-04T05:36:14;9.10;;;1.90;;
3189;SDS011;1606;51.946;10.558;2023-01-04T05:38:42;6.57;;;2.00;;
3189;SDS011;1606;51.946;10.558;2023-01-04T05:41:10;7.82;;;1.60;;
3189;SDS011;1606;51.946;10.558;2023-01-04T05:43:54;6.30;;;2.20;;
3189;SDS011;1606;51.946;10.558;2023-01-04T05:46:22;6.60;;;1.37;;
3189;SDS011;1606;51.946;10.558;2023-01-04T05:48:50;6.27;;;1.73;;
3189;SDS011;1606;51.946;10.558;2023-01-04T05:51:18;6.33;;;1.70;;
3189;SDS011;1606;51.946;10.558;2023-01-04T05:53:48;6.33;;;1.60;;
3189;SDS011;1606;51.946;10.558;2023-01-04T05:56:16;5.97;;;1.57;;
3189;SDS011;1606;51.946;10.558;2023-01-04T05:58:44;6.10;;;1.60;;
3189;SDS011;1606;51.946;10.558;2023-01-04T06:01:14;7.67;;;2.00;;
3189;SDS011;1606;51.946;10.558;2023-01-04T06:03:42;5.60;;;1.67;;
3189;SDS011;1606;51.946;10.558;2023-01-04T06:06:10;8.23;;;1.73;;
3189;SDS011;1606;51.946;10.558;2023-01-04T06:08:38;6.07;;;1.70;;
3189;SDS011;1606;51.946;10.558;2023-01-04T06:11:06;8.13;;;2.50;;
3189;SDS011;1606;51.946;10.558;2023-01-04T06:13:34;6.43;;;1.40;;
3189;SDS011;1606;51.946;10.558;2023-01-04T06:16:01;6.10;;;1.63;;
3189;SDS011;1606;51.946;10.558;2023-01-04T06:18:31;8.63;;;2.07;;
3189;SDS011;1606;51.946;10.558;2023-01-04T06:20:58;7.30;;;2.00;;
3189;SDS011;1606;51.946;10.558;2023-01-04T06:23:26;7.60;;;1.90;;
3189;SDS011;1606;51.946;10.558;2023-01-04T06:25:54;7.50;;;2.43;;
3189;SDS011;1606;51.946;10.558;2023-01-04T06:28:22;6.73;;;1.80;;
3189;SDS011;1606;51.946;10.558;2023-01-04T06:30:50;5.93;;;2.23;;
3189;SDS011;1606;51.946;10.558;2023-01-04T06:33:18;7.37;;;1.83;;
3189;SDS011;1606;51.946;10.558;2023-01-04T06:35:53;6.33;;;2.17;;
3189;SDS011;1606;51.946;10.558;2023-01-04T06:38:21;6.60;;;1.67;;
3189;SDS011;1606;51.946;10.558;2023-01-04T06:40:52;6.73;;;2.27;;
3189;SDS011;1606;51.946;10.558;2023-01-04T06:43:20;10.63;;;2.20;;
3189;SDS011;1606;51.946;10.558;2023-01-04T06:45:47;7.30;;;2.20;;
3189;SDS011;1606;51.946;10.558;2023-01-04T06:48:15;8.33;;;1.90;;
3189;SDS011;1606;51.946;10.558;2023-01-04T06:50:43;6.57;;;2.10;;
3189;SDS011;1606;51.946;10.558;2023-01-04T06:53:13;6.07;;;2.00;;
3189;SDS011;1606;51.946;10.558;2023-01-04T06:55:42;6.30;;;1.83;;
3189;SDS011;1606;51.946;10.558;2023-01-04T06:58:10;6.20;;;2.20;;
3189;SDS011;1606;51.946;10.558;2023-01-04T07:00:38;6.37;;;1.80;;
3189;SDS011;1606;51.946;10.558;2023-01-04T07:03:05;5.77;;;1.67;;
3189;SDS011;1606;51.946;10.558;2023-01-04T07:05:40;5.73;;;1.90;;
3189;SDS011;1606;51.946;10.558;2023-01-04T07:08:09;12.23;;;2.33;;
3189;SDS011;1606;51.946;10.558;2023-01-04T07:10:38;6.10;;;1.87;;
3189;SDS011;1606;51.946;10.558;2023-01-04T07:13:07;8.80;;;2.30;;
3189;SDS011;1606;51.946;10.558;2023-01-04T07:15:35;9.73;;;3.47;;
3189;SDS011;1606;51.946;10.558;2023-01-04T07:18:06;12.40;;;2.10;;
3189;SDS011;1606;51.946;10.558;2023-01-04T07:20:34;7.27;;;2.53;;
3189;SDS011;1606;51.946;10.558;2023-01-04T07:23:02;7.37;;;2.43;;
3189;SDS011;1606;51.946;10.558;2023-01-04T07:25:30;6.47;;;2.07;;
3189;SDS011;1606;51.946;10.558;2023-01-04T07:28:00;8.20;;;2.47;;
3189;SDS011;1606;51.946;10.558;2023-01-04T07:30:28;6.40;;;2.10;;
3189;SDS011;1606;51.946;10.558;2023-01-04T07:32:56;9.67;;;1.97;;
3189;SDS011;1606;51.946;10.558;2023-01-04T07:35:24;6.93;;;1.77;;
3189;SDS011;1606;51.946;10.558;2023-01-04T07:37:52;6.90;;;1.80;;
3189;SDS011;1606;51.946;10.558;2023-01-04T07:40:24;6.37;;;2.33;;
3189;SDS011;1606;51.946;10.558;2023-01-04T07:42:53;6.73;;;2.20;;
3189;SDS011;1606;51.946;10.558;2023-01-04T07:45:24;8.47;;;2.80;;
3189;SDS011;1606;51.946;10.558;2023-01-04T07:47:53;6.70;;;2.17;;
3189;SDS011;1606;51.946;10.558;2023-01-04T07:50:21;6.57;;;1.77;;
3189;SDS011;1606;51.946;10.558;2023-01-04T07:52:48;8.47;;;2.20;;
3189;SDS011;1606;51.946;10.558;2023-01-04T07:55:16;7.50;;;2.07;;
3189;SDS011;1606;51.946;10.558;2023-01-04T07:57:44;7.43;;;2.47;;
3189;SDS011;1606;51.946;10.558;2023-01-04T08:00:12;7.50;;;2.00;;
3189;SDS011;1606;51.946;10.558;2023-01-04T08:02:41;6.03;;;2.13;;
3189;SDS011;1606;51.946;10.558;2023-01-04T08:05:09;8.60;;;2.67;;
3189;SDS011;1606;51.946;10.558;2023-01-04T08:07:37;7.20;;;2.30;;
3189;SDS011;1606;51.946;10.558;2023-01-04T08:10:06;6.20;;;2.30;;
3189;SDS011;1606;51.946;10.558;2023-01-04T08:12:34;6.67;;;2.20;;
3189;SDS011;1606;51.946;10.558;2023-01-04T08:15:02;6.07;;;2.00;;
3189;SDS011;1606;51.946;10.558;2023-01-04T08:17:30;7.47;;;2.03;;
3189;SDS011;1606;51.946;10.558;2023-01-04T08:20:00;7.80;;;1.77;;
3189;SDS011;1606;51.946;10.558;2023-01-04T08:22:29;6.50;;;2.00;;
3189;SDS011;1606;51.946;10.558;2023-01-04T08:24:57;5.97;;;2.07;;
3189;SDS011;1606;51.946;10.558;2023-01-04T08:27:25;6.63;;;2.00;;
3189;SDS011;1606;51.946;10.558;2023-01-04T08:29:53;6.17;;;1.77;;
3189;SDS011;1606;51.946;10.558;2023-01-04T08:32:21;6.13;;;1.80;;
3189;SDS011;1606;51.946;10.558;2023-01-04T08:34:48;5.90;;;2.20;;
3189;SDS011;1606;51.946;10.558;2023-01-04T08:37:18;6.73;;;1.73;;
3189;SDS011;1606;51.946;10.558;2023-01-04T08:39:45;5.77;;;1.67;;
3189;SDS011;1606;51.946;10.558;2023-01-04T08:42:15;7.17;;;1.90;;
3189;SDS011;1606;51.946;10.558;2023-01-04T08:44:56;6.53;;;2.20;;
3189;SDS011;1606;51.946;10.558;2023-01-04T08:47:26;6.30;;;1.97;;
3189;SDS011;1606;51.946;10.558;2023-01-04T08:49:56;8.33;;;1.80;;
3189;SDS011;1606;51.946;10.558;2023-01-04T08:52:32;6.47;;;2.10;;
3189;SDS011;1606;51.946;10.558;2023-01-04T08:55:00;6.40;;;1.73;;
3189;SDS011;1606;51.946;10.558;2023-01-04T08:57:37;6.33;;;2.30;;
3189;SDS011;1606;51.946;10.558;2023-01-04T09:00:05;6.87;;;2.63;;
3189;SDS011;1606;51.946;10.558;2023-01-04T09:02:34;5.93;;;2.20;;
3189;SDS011;1606;51.946;10.558;2023-01-04T09:05:02;6.33;;;1.90;;
3189;SDS011;1606;51.946;10.558;2023-01-04T09:07:31;6.37;;;1.73;;
3189;SDS011;1606;51.946;10.558;2023-01-04T09:10:00;5.70;;;1.70;;
3189;SDS011;1606;51.946;10.558;2023-01-04T09:12:31;8.33;;;1.70;;
3189;SDS011;1606;51.946;10.558;2023-01-04T09:14:58;5.87;;;1.60;;
3189;SDS011;1606;51.946;10.558;2023-01-04T09:17:26;5.97;;;1.83;;
3189;SDS011;1606;51.946;10.558;2023-01-04T09:19:54;6.00;;;1.77;;
3189;SDS011;1606;51.946;10.558;2023-01-04T09:22:22;6.20;;;2.20;;
3189;SDS011;1606;51.946;10.558;2023-01-04T09:24:51;6.67;;;2.00;;
3189;SDS011;1606;51.946;10.558;2023-01-04T09:27:19;5.40;;;1.53;;
3189;SDS011;1606;51.946;10.558;2023-01-04T09:29:46;6.80;;;2.60;;
3189;SDS011;1606;51.946;10.558;2023-01-04T09:32:14;7.13;;;2.13;;
3189;SDS011;1606;51.946;10.558;2023-01-04T09:34:42;5.77;;;1.70;;
3189;SDS011;1606;51.946;10.558;2023-01-04T09:37:10;6.60;;;2.10;;
3189;SDS011;1606;51.946;10.558;2023-01-04T09:39:38;8.10;;;2.00;;
3189;SDS011;1606;51.946;10.558;2023-01-04T09:42:12;5.90;;;2.10;;
3189;SDS011;1606;51.946;10.558;2023-01-04T09:44:44;5.83;;;1.70;;
3189;SDS011;1606;51.946;10.558;2023-01-04T09:47:37;6.17;;;1.90;;
3189;SDS011;1606;51.946;10.558;2023-01-04T09:50:10;7.50;;;2.13;;
3189;SDS011;1606;51.946;10.558;2023-01-04T09:52:43;6.47;;;1.70;;
3189;SDS011;1606;51.946;10.558;2023-01-04T09:55:20;7.07;;;1.97;;
3189;SDS011;1606;51.946;10.558;2023-01-04T09:58:11;5.90;;;2.13;;
3189;SDS011;1606;51.946;10.558;2023-01-04T10:00:45;6.23;;;1.80;;
3189;SDS011;1606;51.946;10.558;2023-01-04T10:03:17;6.40;;;2.13;;
3189;SDS011;1606;51.946;10.558;2023-01-04T10:05:53;6.27;;;1.90;;
3189;SDS011;1606;51.946;10.558;2023-01-04T10:08:22;6.17;;;2.13;;
3189;SDS011;1606;51.946;10.558;2023-01-04T10:10:52;6.10;;;1.80;;
3189;SDS011;1606;51.946;10.558;2023-01-04T10:13:35;7.73;;;2.90;;
3189;SDS011;1606;51.946;10.558;2023-01-04T10:16:17;6.20;;;1.87;;
3189;SDS011;1606;51.946;10.558;2023-01-04T10:19:18;6.80;;;1.70;;
3189;SDS011;1606;51.946;10.558;2023-01-04T10:22:14;6.13;;;2.20;;
3189;SDS011;1606;51.946;10.558;2023-01-04T10:24:53;6.27;;;1.77;;
3189;SDS011;1606;51.946;10.558;2023-01-04T10:27:30;7.10;;;2.20;;
3189;SDS011;1606;51.946;10.558;2023-01-04T10:30:23;6.20;;;1.80;;
3189;SDS011;1606;51.946;10.558;2023-01-04T10:32:58;5.90;;;1.90;;
3189;SDS011;1606;51.946;10.558;2023-01-04T10:35:35;8.57;;;1.93;;
3189;SDS011;1606;51.946;10.558;2023-01-04T10:38:07;6.73;;;2.17;;
3189;SDS011;1606;51.946;10.558;2023-01-04T10:40:40;5.33;;;1.70;;
3189;SDS011;1606;51.946;10.558;2023-01-04T10:43:10;5.70;;;1.90;;
3189;SDS011;1606;51.946;10.558;2023-01-04T10:45:47;8.03;;;1.70;;
3189;SDS011;1606;51.946;10.558;2023-01-04T10:48:21;6.20;;;1.70;;
3189;SDS011;1606;51.946;10.558;2023-01-04T10:50:57;6.23;;;1.90;;
3189;SDS011;1606;51.946;10.558;2023-01-04T10:53:35;5.70;;;1.63;;
3189;SDS011;1606;51.946;10.558;2023-01-04T10:56:11;5.73;;;1.53;;
3189;SDS011;1606;51.946;10.558;2023-01-04T10:58:54;5.47;;;1.60;;
3189;SDS011;1606;51.946;10.558;2023-01-04T11:01:29;7.07;;;2.20;;
3189;SDS011;1606;51.946;10.558;2023-01-04T11:04:02;6.67;;;1.43;;
3189;SDS011;1606;51.946;10.558;2023-01-04T11:06:38;7.10;;;1.87;;
3189;SDS011;1606;51.946;10.558;2023-01-04T11:09:11;5.80;;;1.83;;
3189;SDS011;1606;51.946;10.558;2023-01-04T11:11:50;5.50;;;1.30;;
3189;SDS011;1606;51.946;10.558;2023-01-04T11:14:19;5.77;;;1.63;;
3189;SDS011;1606;51.946;10.558;2023-01-04T11:16:50;5.60;;;1.40;;
3189;SDS011;1606;51.946;10.558;2023-01-04T11:19:22;6.13;;;1.57;;
3189;SDS011;1606;51.946;10.558;2023-01-04T11:21:51;5.30;;;1.40;;
3189;SDS011;1606;51.946;10.558;2023-01-04T11:24:24;5.30;;;1.10;;
3189;SDS011;1606;51.946;10.558;2023-01-04T11:26:58;6.22;;;1.10;;
3189;SDS011;1606;51.946;10.558;2023-01-04T11:29:32;5.73;;;1.27;;
3189;SDS011;1606;51.946;10.558;2023-01-04T11:32:13;5.90;;;1.40;;
3189;SDS011;1606;51.946;10.558;2023-01-04T11:34:45;5.47;;;1.27;;
3189;SDS011;1606;51.946;10.558;2023-01-04T11:37:28;5.17;;;1.17;;
3189;SDS011;1606;51.946;10.558;2023-01-04T11:40:18;5.90;;;1.37;;
3189;SDS011;1606;51.946;10.558;2023-01-04T11:42:49;6.80;;;1.40;;
3189;SDS011;1606;51.946;10.558;2023-01-04T11:45:20;5.37;;;1.30;;
3189;SDS011;1606;51.946;10.558;2023-01-04T11:47:52;5.40;;;1.03;;
3189;SDS011;1606;51.946;10.558;2023-01-04T11:50:32;5.37;;;0.97;;
3189;SDS011;1606;51.946;10.558;2023-01-04T11:53:26;5.47;;;1.00;;
3189;SDS011;1606;51.946;10.558;2023-01-04T11:56:07;5.30;;;1.03;;
3189;SDS011;1606;51.946;10.558;2023-01-04T11:59:00;7.20;;;1.20;;
3189;SDS011;1606;51.946;10.558;2023-01-04T12:01:31;5.60;;;1.20;;
3189;SDS011;1606;51.946;10.558;2023-01-04T12:04:01;5.60;;;1.00;;
3189;SDS011;1606;51.946;10.558;2023-01-04T12:06:35;5.03;;;0.90;;
3189;SDS011;1606;51.946;10.558;2023-01-04T12:09:08;5.50;;;1.10;;
3189;SDS011;1606;51.946;10.558;2023-01-04T12:11:41;5.27;;;1.00;;
3189;SDS011;1606;51.946;10.558;2023-01-04T12:14:17;5.10;;;1.00;;
3189;SDS011;1606;51.946;10.558;2023-01-04T12:16:47;5.17;;;0.90;;
3189;SDS011;1606;51.946;10.558;2023-01-04T12:19:23;5.30;;;0.90;;
3189;SDS011;1606;51.946;10.558;2023-01-04T12:21:53;5.30;;;1.00;;
3189;SDS011;1606;51.946;10.558;2023-01-04T12:24:23;5.17;;;0.97;;
3189;SDS011;1606;51.946;10.558;2023-01-04T12:26:55;5.63;;;0.87;;
3189;SDS011;1606;51.946;10.558;2023-01-04T12:32:42;5.20;;;1.00;;
3189;SDS011;1606;51.946;10.558;2023-01-04T12:44:57;6.03;;;1.03;;
3189;SDS011;1606;51.946;10.558;2023-01-04T12:47:48;5.10;;;1.00;;
3189;SDS011;1606;51.946;10.558;2023-01-04T12:53:58;5.10;;;1.00;;
3189;SDS011;1606;51.946;10.558;2023-01-04T12:59:35;5.20;;;0.80;;
3189;SDS011;1606;51.946;10.558;2023-01-04T13:02:07;5.10;;;0.90;;
3189;SDS011;1606;51.946;10.558;2023-01-04T13:04:43;4.93;;;0.80;;
3189;SDS011;1606;51.946;10.558;2023-01-04T13:07:13;5.10;;;0.80;;
3189;SDS011;1606;51.946;10.558;2023-01-04T13:09:52;5.10;;;0.90;;
3189;SDS011;1606;51.946;10.558;2023-01-04T13:12:29;5.70;;;1.00;;
3189;SDS011;1606;51.946;10.558;2023-01-04T13:15:15;5.00;;;0.80;;
3189;SDS011;1606;51.946;10.558;2023-01-04T13:17:48;5.77;;;0.80;;
3189;SDS011;1606;51.946;10.558;2023-01-04T13:20:18;5.40;;;0.55;;
3189;SDS011;1606;51.946;10.558;2023-01-04T13:22:49;5.20;;;1.20;;
3189;SDS011;1606;51.946;10.558;2023-01-04T13:25:19;4.87;;;0.80;;
3189;SDS011;1606;51.946;10.558;2023-01-04T13:27:55;4.90;;;0.70;;
3189;SDS011;1606;51.946;10.558;2023-01-04T13:30:30;5.10;;;0.90;;
3189;SDS011;1606;51.946;10.558;2023-01-04T13:33:06;5.13;;;1.00;;
3189;SDS011;1606;51.946;10.558;2023-01-04T13:35:58;5.73;;;0.90;;
3189;SDS011;1606;51.946;10.558;2023-01-04T13:38:29;4.93;;;0.83;;
3189;SDS011;1606;51.946;10.558;2023-01-04T13:40:59;5.47;;;1.07;;
3189;SDS011;1606;51.946;10.558;2023-01-04T13:43:44;5.17;;;0.97;;
3189;SDS011;1606;51.946;10.558;2023-01-04T13:46:23;5.30;;;1.00;;
3189;SDS011;1606;51.946;10.558;2023-01-04T13:48:53;5.20;;;1.03;;
3189;SDS011;1606;51.946;10.558;2023-01-04T13:51:28;5.03;;;1.00;;
3189;SDS011;1606;51.946;10.558;2023-01-04T13:54:03;5.97;;;1.00;;
3189;SDS011;1606;51.946;10.558;2023-01-04T13:56:33;5.87;;;0.80;;
3189;SDS011;1606;51.946;10.558;2023-01-04T13:59:01;4.97;;;0.83;;
3189;SDS011;1606;51.946;10.558;2023-01-04T14:01:30;5.03;;;1.00;;
3189;SDS011;1606;51.946;10.558;2023-01-04T14:04:01;5.20;;;1.30;;
3189;SDS011;1606;51.946;10.558;2023-01-04T14:06:32;5.10;;;0.90;;
3189;SDS011;1606;51.946;10.558;2023-01-04T14:09:11;5.03;;;0.83;;
3189;SDS011;1606;51.946;10.558;2023-01-04T14:11:42;6.43;;;1.00;;
3189;SDS011;1606;51.946;10.558;2023-01-04T14:14:36;5.20;;;1.10;;
3189;SDS011;1606;51.946;10.558;2023-01-04T14:17:17;5.50;;;1.00;;
3189;SDS011;1606;51.946;10.558;2023-01-04T14:19:51;6.67;;;1.13;;
3189;SDS011;1606;51.946;10.558;2023-01-04T14:22:27;5.07;;;0.87;;
3189;SDS011;1606;51.946;10.558;2023-01-04T14:30:44;5.23;;;0.90;;
3189;SDS011;1606;51.946;10.558;2023-01-04T14:33:14;5.90;;;1.00;;
3189;SDS011;1606;51.946;10.558;2023-01-04T14:35:45;6.00;;;1.63;;
3189;SDS011;1606;51.946;10.558;2023-01-04T14:38:26;5.40;;;1.00;;
3189;SDS011;1606;51.946;10.558;2023-01-04T14:40:54;5.20;;;0.80;;
3189;SDS011;1606;51.946;10.558;2023-01-04T14:43:32;5.20;;;0.90;;
3189;SDS011;1606;51.946;10.558;2023-01-04T14:46:01;6.07;;;0.80;;
3189;SDS011;1606;51.946;10.558;2023-01-04T14:48:30;5.10;;;0.70;;
3189;SDS011;1606;51.946;10.558;2023-01-04T14:50:58;6.40;;;1.07;;
3189;SDS011;1606;51.946;10.558;2023-01-04T14:53:29;5.00;;;0.77;;
3189;SDS011;1606;51.946;10.558;2023-01-04T14:55:57;5.00;;;0.87;;
3189;SDS011;1606;51.946;10.558;2023-01-04T14:58:25;5.97;;;0.90;;
3189;SDS011;1606;51.946;10.558;2023-01-04T15:00:52;5.00;;;0.80;;
3189;SDS011;1606;51.946;10.558;2023-01-04T15:03:20;5.70;;;0.97;;
3189;SDS011;1606;51.946;10.558;2023-01-04T15:05:49;5.23;;;0.80;;
3189;SDS011;1606;51.946;10.558;2023-01-04T15:08:17;5.17;;;0.87;;
3189;SDS011;1606;51.946;10.558;2023-01-04T15:10:45;5.00;;;0.90;;
3189;SDS011;1606;51.946;10.558;2023-01-04T15:13:18;5.03;;;0.80;;
3189;SDS011;1606;51.946;10.558;2023-01-04T15:15:46;5.30;;;0.83;;
3189;SDS011;1606;51.946;10.558;2023-01-04T15:18:15;5.30;;;1.07;;
3189;SDS011;1606;51.946;10.558;2023-01-04T15:20:42;5.27;;;1.00;;
3189;SDS011;1606;51.946;10.558;2023-01-04T15:23:12;5.97;;;0.80;;
3189;SDS011;1606;51.946;10.558;2023-01-04T15:25:40;5.57;;;0.70;;
3189;SDS011;1606;51.946;10.558;2023-01-04T15:28:09;5.27;;;1.10;;
3189;SDS011;1606;51.946;10.558;2023-01-04T15:30:39;5.17;;;1.00;;
3189;SDS011;1606;51.946;10.558;2023-01-04T15:33:07;5.10;;;0.73;;
3189;SDS011;1606;51.946;10.558;2023-01-04T15:35:35;5.10;;;0.80;;
3189;SDS011;1606;51.946;10.558;2023-01-04T15:38:03;4.97;;;0.60;;
3189;SDS011;1606;51.946;10.558;2023-01-04T15:40:33;5.00;;;0.60;;
3189;SDS011;1606;51.946;10.558;2023-01-04T15:43:01;5.30;;;0.80;;
3189;SDS011;1606;51.946;10.558;2023-01-04T15:45:29;5.07;;;0.70;;
3189;SDS011;1606;51.946;10.558;2023-01-04T15:47:58;5.20;;;0.80;;
3189;SDS011;1606;51.946;10.558;2023-01-04T15:50:28;5.30;;;0.83;;
3189;SDS011;1606;51.946;10.558;2023-01-04T15:52:56;6.23;;;0.70;;
3189;SDS011;1606;51.946;10.558;2023-01-04T15:55:24;5.70;;;1.10;;
3189;SDS011;1606;51.946;10.558;2023-01-04T15:58:00;5.20;;;0.73;;
3189;SDS011;1606;51.946;10.558;2023-01-04T16:00:28;6.07;;;0.83;;
3189;SDS011;1606;51.946;10.558;2023-01-04T16:02:57;5.50;;;0.90;;
3189;SDS011;1606;51.946;10.558;2023-01-04T16:05:25;5.50;;;1.27;;